sensor_id;sensor_type;location;lat;lon;timestamp;pressure;altitude;pressure_sealevel;temperature;humidity
65760;BME280;52496;51.082;5.066;2023-05-22T00:00:26;101408.28;;;16.17;100.00
65760;BME280;52496;51.082;5.066;2023-05-22T00:02:57;101408.06;;;16.12;100.00
65760;BME280;52496;51.082;5.066;2023-05-22T00:05:28;101405.19;;;16.07;100.00
65760;BME280;52496;51.082;5.066;2023-05-22T00:07:59;101409.13;;;16.04;100.00
65760;BME280;52496;51.082;5.066;2023-05-22T00:10:30;101406.00;;;16.01;100.00
65760;BME280;52496;51.082;5.066;2023-05-22T00:13:00;101409.31;;;15.96;100.00
65760;BME280;52496;51.082;5.066;2023-05-22T00:15:32;101401.00;;;15.91;100.00
65760;BME280;52496;51.082;5.066;2023-05-22T00:18:02;101401.63;;;15.87;100.00
65760;BME280;52496;51.082;5.066;2023-05-22T00:20:33;101402.22;;;15.82;100.00
65760;BME280;52496;51.082;5.066;2023-05-22T00:23:07;101403.69;;;15.78;100.00
65760;BME280;52496;51.082;5.066;2023-05-22T00:25:41;101401.63;;;15.73;100.00
65760;BME280;52496;51.082;5.066;2023-05-22T00:28:11;101401.16;;;15.70;100.00
65760;BME280;52496;51.082;5.066;2023-05-22T00:30:42;101391.81;;;15.66;100.00
65760;BME280;52496;51.082;5.066;2023-05-22T00:33:12;101385.16;;;15.62;100.00
65760;BME280;52496;51.082;5.066;2023-05-22T00:35:43;101391.81;;;15.59;100.00
65760;BME280;52496;51.082;5.066;2023-05-22T00:38:33;101388.06;;;15.53;100.00
65760;BME280;52496;51.082;5.066;2023-05-22T00:41:05;101392.81;;;15.51;100.00
65760;BME280;52496;51.082;5.066;2023-05-22T00:43:38;101396.94;;;15.47;100.00
65760;BME280;52496;51.082;5.066;2023-05-22T00:46:08;101391.97;;;15.44;100.00
65760;BME280;52496;51.082;5.066;2023-05-22T00:48:39;101393.41;;;15.40;100.00
65760;BME280;52496;51.082;5.066;2023-05-22T00:51:10;101394.84;;;15.36;100.00
65760;BME280;52496;51.082;5.066;2023-05-22T00:53:42;101390.88;;;15.32;100.00
65760;BME280;52496;51.082;5.066;2023-05-22T00:56:13;101387.97;;;15.27;100.00
65760;BME280;52496;51.082;5.066;2023-05-22T00:58:44;101385.06;;;15.22;100.00
65760;BME280;52496;51.082;5.066;2023-05-22T01:01:15;101380.47;;;15.16;100.00
65760;BME280;52496;51.082;5.066;2023-05-22T01:03:46;101386.06;;;15.14;100.00
65760;BME280;52496;51.082;5.066;2023-05-22T01:06:17;101385.63;;;15.10;100.00
65760;BME280;52496;51.082;5.066;2023-05-22T01:08:47;101379.59;;;15.08;100.00
65760;BME280;52496;51.082;5.066;2023-05-22T01:11:20;101370.91;;;15.06;100.00
65760;BME280;52496;51.082;5.066;2023-05-22T01:16:55;101377.88;;;14.94;100.00
65760;BME280;52496;51.082;5.066;2023-05-22T01:22:37;101374.56;;;14.85;100.00
65760;BME280;52496;51.082;5.066;2023-05-22T01:28:29;101365.38;;;14.73;100.00
65760;BME280;52496;51.082;5.066;2023-05-22T01:31:07;101364.91;;;14.69;100.00
65760;BME280;52496;51.082;5.066;2023-05-22T01:33:57;101368.22;;;14.65;100.00
65760;BME280;52496;51.082;5.066;2023-05-22T01:36:32;101375.88;;;14.61;100.00
65760;BME280;52496;51.082;5.066;2023-05-22T01:39:06;101359.88;;;14.53;100.00
65760;BME280;52496;51.082;5.066;2023-05-22T01:41:39;101367.66;;;14.48;100.00
65760;BME280;52496;51.082;5.066;2023-05-22T01:44:10;101366.59;;;14.42;100.00
65760;BME280;52496;51.082;5.066;2023-05-22T01:46:40;101367.81;;;14.40;100.00
65760;BME280;52496;51.082;5.066;2023-05-22T01:49:11;101371.31;;;14.34;100.00
65760;BME280;52496;51.082;5.066;2023-05-22T01:51:51;101368.53;;;14.27;100.00
65760;BME280;52496;51.082;5.066;2023-05-22T01:54:31;101376.19;;;14.23;100.00
65760;BME280;52496;51.082;5.066;2023-05-22T01:57:18;101374.09;;;14.19;100.00
65760;BME280;52496;51.082;5.066;2023-05-22T02:02:41;101376.91;;;14.11;100.00
65760;BME280;52496;51.082;5.066;2023-05-22T02:05:15;101375.81;;;14.05;100.00
65760;BME280;52496;51.082;5.066;2023-05-22T02:07:48;101372.91;;;14.00;100.00
65760;BME280;52496;51.082;5.066;2023-05-22T02:10:20;101378.47;;;13.98;100.00
65760;BME280;52496;51.082;5.066;2023-05-22T02:12:51;101381.75;;;13.94;100.00
65760;BME280;52496;51.082;5.066;2023-05-22T02:15:22;101377.75;;;13.90;100.00
65760;BME280;52496;51.082;5.066;2023-05-22T02:17:52;101379.19;;;13.86;100.00
65760;BME280;52496;51.082;5.066;2023-05-22T02:20:23;101377.91;;;13.82;100.00
65760;BME280;52496;51.082;5.066;2023-05-22T02:22:53;101372.94;;;13.79;100.00
65760;BME280;52496;51.082;5.066;2023-05-22T02:25:24;101374.59;;;13.80;100.00
65760;BME280;52496;51.082;5.066;2023-05-22T02:27:54;101379.31;;;13.77;100.00
65760;BME280;52496;51.082;5.066;2023-05-22T02:30:25;101369.78;;;13.75;100.00
65760;BME280;52496;51.082;5.066;2023-05-22T02:32:56;101381.72;;;13.72;100.00
65760;BME280;52496;51.082;5.066;2023-05-22T02:35:27;101365.75;;;13.64;100.00
65760;BME280;52496;51.082;5.066;2023-05-22T02:37:57;101364.44;;;13.60;100.00
65760;BME280;52496;51.082;5.066;2023-05-22T02:40:28;101371.25;;;13.56;100.00
65760;BME280;52496;51.082;5.066;2023-05-22T02:42:58;101371.84;;;13.51;100.00
65760;BME280;52496;51.082;5.066;2023-05-22T02:45:29;101370.16;;;13.50;100.00
65760;BME280;52496;51.082;5.066;2023-05-22T02:48:00;101367.47;;;13.50;100.00
65760;BME280;52496;51.082;5.066;2023-05-22T02:50:32;101366.63;;;13.50;100.00
65760;BME280;52496;51.082;5.066;2023-05-22T02:53:02;101362.09;;;13.50;100.00
65760;BME280;52496;51.082;5.066;2023-05-22T02:55:33;101363.56;;;13.53;100.00
65760;BME280;52496;51.082;5.066;2023-05-22T02:58:03;101370.59;;;13.54;100.00
65760;BME280;52496;51.082;5.066;2023-05-22T03:00:34;101360.09;;;13.59;100.00
65760;BME280;52496;51.082;5.066;2023-05-22T03:03:05;101364.28;;;13.62;100.00
65760;BME280;52496;51.082;5.066;2023-05-22T03:05:36;101365.75;;;13.64;100.00
65760;BME280;52496;51.082;5.066;2023-05-22T03:08:07;101361.00;;;13.66;100.00
65760;BME280;52496;51.082;5.066;2023-05-22T03:10:38;101363.28;;;13.69;100.00
65760;BME280;52496;51.082;5.066;2023-05-22T03:13:08;101368.28;;;13.72;100.00
65760;BME280;52496;51.082;5.066;2023-05-22T03:15:38;101364.59;;;13.73;100.00
65760;BME280;52496;51.082;5.066;2023-05-22T03:18:09;101362.56;;;13.75;100.00
65760;BME280;52496;51.082;5.066;2023-05-22T03:20:40;101361.31;;;13.78;100.00
65760;BME280;52496;51.082;5.066;2023-05-22T03:23:11;101358.44;;;13.80;100.00
65760;BME280;52496;51.082;5.066;2023-05-22T03:25:42;101369.84;;;13.82;100.00
65760;BME280;52496;51.082;5.066;2023-05-22T03:28:13;101359.72;;;13.84;100.00
65760;BME280;52496;51.082;5.066;2023-05-22T03:30:44;101346.09;;;13.85;100.00
65760;BME280;52496;51.082;5.066;2023-05-22T03:33:15;101357.03;;;13.84;100.00
65760;BME280;52496;51.082;5.066;2023-05-22T03:35:46;101356.03;;;13.85;100.00
65760;BME280;52496;51.082;5.066;2023-05-22T03:38:16;101356.84;;;13.85;100.00
65760;BME280;52496;51.082;5.066;2023-05-22T03:40:46;101352.31;;;13.86;100.00
65760;BME280;52496;51.082;5.066;2023-05-22T03:43:17;101366.19;;;13.89;100.00
65760;BME280;52496;51.082;5.066;2023-05-22T03:45:49;101361.25;;;13.93;100.00
65760;BME280;52496;51.082;5.066;2023-05-22T03:48:20;101362.94;;;13.94;100.00
65760;BME280;52496;51.082;5.066;2023-05-22T03:50:51;101366.63;;;13.93;100.00
65760;BME280;52496;51.082;5.066;2023-05-22T03:53:21;101360.41;;;13.92;100.00
65760;BME280;52496;51.082;5.066;2023-05-22T03:55:52;101354.41;;;13.90;100.00
65760;BME280;52496;51.082;5.066;2023-05-22T03:58:22;101366.00;;;13.91;100.00
65760;BME280;52496;51.082;5.066;2023-05-22T04:00:56;101369.31;;;13.93;100.00
65760;BME280;52496;51.082;5.066;2023-05-22T04:03:27;101362.94;;;13.94;100.00
65760;BME280;52496;51.082;5.066;2023-05-22T04:05:58;101356.91;;;13.92;100.00
65760;BME280;52496;51.082;5.066;2023-05-22T04:08:28;101364.59;;;13.95;100.00
65760;BME280;52496;51.082;5.066;2023-05-22T04:11:00;101365.41;;;13.95;100.00
65760;BME280;52496;51.082;5.066;2023-05-22T04:13:30;101362.53;;;13.97;100.00
65760;BME280;52496;51.082;5.066;2023-05-22T04:16:02;101361.50;;;13.98;100.00
65760;BME280;52496;51.082;5.066;2023-05-22T04:18:33;101355.47;;;13.96;100.00
65760;BME280;52496;51.082;5.066;2023-05-22T04:21:04;101358.59;;;13.99;100.00
65760;BME280;52496;51.082;5.066;2023-05-22T04:23:37;101360.28;;;14.00;100.00
65760;BME280;52496;51.082;5.066;2023-05-22T04:26:07;101366.50;;;14.01;100.00
65760;BME280;52496;51.082;5.066;2023-05-22T04:28:38;101361.13;;;14.01;100.00
65760;BME280;52496;51.082;5.066;2023-05-22T04:31:09;101359.91;;;14.04;100.00
65760;BME280;52496;51.082;5.066;2023-05-22T04:33:39;101360.72;;;14.04;100.00
65760;BME280;52496;51.082;5.066;2023-05-22T04:36:10;101368.59;;;14.06;100.00
65760;BME280;52496;51.082;5.066;2023-05-22T04:38:40;101371.28;;;14.06;100.00
65760;BME280;52496;51.082;5.066;2023-05-22T04:41:14;101380.19;;;14.06;100.00
65760;BME280;52496;51.082;5.066;2023-05-22T04:43:47;101377.31;;;14.08;100.00
65760;BME280;52496;51.082;5.066;2023-05-22T04:46:17;101383.50;;;14.08;100.00
65760;BME280;52496;51.082;5.066;2023-05-22T04:48:51;101381.47;;;14.10;100.00
65760;BME280;52496;51.082;5.066;2023-05-22T04:51:22;101388.31;;;14.13;100.00
65760;BME280;52496;51.082;5.066;2023-05-22T04:53:53;101380.25;;;14.13;100.00
65760;BME280;52496;51.082;5.066;2023-05-22T04:56:24;101380.25;;;14.13;100.00
65760;BME280;52496;51.082;5.066;2023-05-22T04:58:57;101381.50;;;14.17;100.00
65760;BME280;52496;51.082;5.066;2023-05-22T05:01:27;101379.25;;;14.20;100.00
65760;BME280;52496;51.082;5.066;2023-05-22T05:03:58;101380.56;;;14.25;100.00
65760;BME280;52496;51.082;5.066;2023-05-22T05:06:28;101382.00;;;14.27;100.00
65760;BME280;52496;51.082;5.066;2023-05-22T05:08:59;101378.09;;;14.30;100.00
65760;BME280;52496;51.082;5.066;2023-05-22T05:11:31;101382.06;;;14.34;100.00
65760;BME280;52496;51.082;5.066;2023-05-22T05:14:01;101386.41;;;14.35;100.00
65760;BME280;52496;51.082;5.066;2023-05-22T05:16:32;101384.97;;;14.39;100.00
65760;BME280;52496;51.082;5.066;2023-05-22T05:19:02;101380.88;;;14.43;100.00
65760;BME280;52496;51.082;5.066;2023-05-22T05:21:33;101380.50;;;14.46;100.00
65760;BME280;52496;51.082;5.066;2023-05-22T05:24:04;101385.94;;;14.53;100.00
65760;BME280;52496;51.082;5.066;2023-05-22T05:26:35;101383.69;;;14.56;100.00
65760;BME280;52496;51.082;5.066;2023-05-22T05:29:05;101385.97;;;14.59;100.00
65760;BME280;52496;51.082;5.066;2023-05-22T05:31:35;101389.31;;;14.61;100.00
65760;BME280;52496;51.082;5.066;2023-05-22T05:34:06;101381.84;;;14.63;100.00
65760;BME280;52496;51.082;5.066;2023-05-22T05:36:36;101385.84;;;14.67;100.00
65760;BME280;52496;51.082;5.066;2023-05-22T05:39:07;101391.44;;;14.73;100.00
65760;BME280;52496;51.082;5.066;2023-05-22T05:41:38;101389.38;;;14.75;100.00
65760;BME280;52496;51.082;5.066;2023-05-22T05:44:08;101394.38;;;14.78;100.00
65760;BME280;52496;51.082;5.066;2023-05-22T05:46:39;101401.88;;;14.82;100.00
65760;BME280;52496;51.082;5.066;2023-05-22T05:49:10;101400.88;;;14.90;100.00
65760;BME280;52496;51.082;5.066;2023-05-22T05:51:40;101399.41;;;14.94;100.00
65760;BME280;52496;51.082;5.066;2023-05-22T05:54:10;101404.81;;;14.94;100.00
65760;BME280;52496;51.082;5.066;2023-05-22T05:56:41;101397.78;;;14.93;100.00
65760;BME280;52496;51.082;5.066;2023-05-22T05:59:11;101403.97;;;14.94;100.00
65760;BME280;52496;51.082;5.066;2023-05-22T06:01:45;101398.81;;;14.92;100.00
65760;BME280;52496;51.082;5.066;2023-05-22T06:04:16;101402.72;;;14.89;100.00
65760;BME280;52496;51.082;5.066;2023-05-22T06:06:47;101398.81;;;14.92;100.00
65760;BME280;52496;51.082;5.066;2023-05-22T06:09:17;101405.44;;;14.96;100.00
65760;BME280;52496;51.082;5.066;2023-05-22T06:11:48;101406.69;;;15.00;100.00
65760;BME280;52496;51.082;5.066;2023-05-22T06:14:18;101408.63;;;15.06;100.00
65760;BME280;52496;51.082;5.066;2023-05-22T06:16:49;101407.81;;;15.12;100.00
65760;BME280;52496;51.082;5.066;2023-05-22T06:19:19;101411.38;;;15.20;100.00
65760;BME280;52496;51.082;5.066;2023-05-22T06:21:49;101412.44;;;15.25;100.00
65760;BME280;52496;51.082;5.066;2023-05-22T06:24:20;101414.50;;;15.30;100.00
65760;BME280;52496;51.082;5.066;2023-05-22T06:26:50;101412.44;;;15.32;100.00
65760;BME280;52496;51.082;5.066;2023-05-22T06:29:21;101408.72;;;15.33;100.00
65760;BME280;52496;51.082;5.066;2023-05-22T06:31:51;101411.63;;;15.38;100.00
65760;BME280;52496;51.082;5.066;2023-05-22T06:34:22;101419.31;;;15.41;100.00
65760;BME280;52496;51.082;5.066;2023-05-22T06:36:53;101431.59;;;15.50;100.00
65760;BME280;52496;51.082;5.066;2023-05-22T06:39:23;101420.00;;;15.56;100.00
65760;BME280;52496;51.082;5.066;2023-05-22T06:41:54;101431.84;;;15.62;100.00
65760;BME280;52496;51.082;5.066;2023-05-22T06:44:24;101427.25;;;15.63;100.00
65760;BME280;52496;51.082;5.066;2023-05-22T06:46:56;101439.97;;;15.69;100.00
65760;BME280;52496;51.082;5.066;2023-05-22T06:49:27;101430.41;;;15.73;100.00
65760;BME280;52496;51.082;5.066;2023-05-22T06:51:57;101436.69;;;15.80;100.00
65760;BME280;52496;51.082;5.066;2023-05-22T06:54:27;101436.28;;;15.83;100.00
65760;BME280;52496;51.082;5.066;2023-05-22T06:56:58;101445.59;;;15.87;100.00
65760;BME280;52496;51.082;5.066;2023-05-22T06:59:29;101451.22;;;15.92;100.00
65760;BME280;52496;51.082;5.066;2023-05-22T07:01:59;101442.91;;;16.00;100.00
65760;BME280;52496;51.082;5.066;2023-05-22T07:04:30;101448.75;;;16.04;100.00
65760;BME280;52496;51.082;5.066;2023-05-22T07:07:01;101446.66;;;16.06;100.00
65760;BME280;52496;51.082;5.066;2023-05-22T07:09:31;101456.22;;;16.09;100.00
65760;BME280;52496;51.082;5.066;2023-05-22T07:12:05;101456.03;;;16.10;100.00
65760;BME280;52496;51.082;5.066;2023-05-22T07:14:35;101459.97;;;16.08;100.00
65760;BME280;52496;51.082;5.066;2023-05-22T07:17:06;101465.34;;;16.01;100.00
65760;BME280;52496;51.082;5.066;2023-05-22T07:19:36;101464.09;;;15.97;100.00
65760;BME280;52496;51.082;5.066;2023-05-22T07:22:07;101460.38;;;15.98;100.00
65760;BME280;52496;51.082;5.066;2023-05-22T07:24:38;101465.75;;;15.98;100.00
65760;BME280;52496;51.082;5.066;2023-05-22T07:27:08;101469.47;;;16.03;100.00
65760;BME280;52496;51.082;5.066;2023-05-22T07:29:41;101475.94;;;16.09;100.00
65760;BME280;52496;51.082;5.066;2023-05-22T07:32:12;101466.59;;;16.12;100.00
65760;BME280;52496;51.082;5.066;2023-05-22T07:34:42;101477.19;;;16.13;100.00
65760;BME280;52496;51.082;5.066;2023-05-22T07:37:14;101486.13;;;16.14;100.00
65760;BME280;52496;51.082;5.066;2023-05-22T07:39:44;101480.72;;;16.14;100.00
65760;BME280;52496;51.082;5.066;2023-05-22T07:42:15;101484.66;;;16.18;100.00
65760;BME280;52496;51.082;5.066;2023-05-22T07:44:46;101484.66;;;16.18;100.00
65760;BME280;52496;51.082;5.066;2023-05-22T07:47:16;101485.91;;;16.22;100.00
65760;BME280;52496;51.082;5.066;2023-05-22T07:49:50;101491.53;;;16.27;100.00
65760;BME280;52496;51.082;5.066;2023-05-22T07:52:20;101491.09;;;16.30;100.00
65760;BME280;52496;51.082;5.066;2023-05-22T07:54:51;101499.44;;;16.35;100.00
65760;BME280;52496;51.082;5.066;2023-05-22T07:57:21;101503.13;;;16.34;100.00
65760;BME280;52496;51.082;5.066;2023-05-22T07:59:52;101501.06;;;16.36;100.00
65760;BME280;52496;51.082;5.066;2023-05-22T08:02:22;101497.13;;;16.45;100.00
65760;BME280;52496;51.082;5.066;2023-05-22T08:04:53;101505.03;;;16.47;100.00
65760;BME280;52496;51.082;5.066;2023-05-22T08:07:23;101511.50;;;16.52;100.00
65760;BME280;52496;51.082;5.066;2023-05-22T08:09:53;101507.50;;;16.55;100.00
65760;BME280;52496;51.082;5.066;2023-05-22T08:12:24;101505.69;;;16.56;100.00
65760;BME280;52496;51.082;5.066;2023-05-22T08:14:54;101509.38;;;16.55;100.00
65760;BME280;52496;51.082;5.066;2023-05-22T08:17:25;101512.31;;;16.53;100.00
65760;BME280;52496;51.082;5.066;2023-05-22T08:19:55;101511.91;;;16.63;100.00
65760;BME280;52496;51.082;5.066;2023-05-22T08:22:28;101513.13;;;16.73;100.00
65760;BME280;52496;51.082;5.066;2023-05-22T08:24:58;101513.78;;;16.76;100.00
65760;BME280;52496;51.082;5.066;2023-05-22T08:27:29;101506.50;;;16.76;100.00
65760;BME280;52496;51.082;5.066;2023-05-22T08:30:01;101507.72;;;16.73;100.00
65760;BME280;52496;51.082;5.066;2023-05-22T08:32:31;101514.41;;;16.71;100.00
65760;BME280;52496;51.082;5.066;2023-05-22T08:35:01;101512.28;;;16.73;100.00
65760;BME280;52496;51.082;5.066;2023-05-22T08:37:32;101513.97;;;16.74;100.00
65760;BME280;52496;51.082;5.066;2023-05-22T08:40:03;101513.56;;;16.84;100.00
65760;BME280;52496;51.082;5.066;2023-05-22T08:42:34;101503.56;;;16.97;100.00
65760;BME280;52496;51.082;5.066;2023-05-22T08:45:05;101510.22;;;17.02;100.00
65760;BME280;52496;51.082;5.066;2023-05-22T08:47:36;101503.16;;;17.07;100.00
65760;BME280;52496;51.082;5.066;2023-05-22T08:50:09;101507.50;;;17.08;100.00
65760;BME280;52496;51.082;5.066;2023-05-22T08:53:00;101512.25;;;17.13;100.00
65760;BME280;52496;51.082;5.066;2023-05-22T08:55:32;101510.59;;;17.18;100.00
65760;BME280;52496;51.082;5.066;2023-05-22T08:58:03;101514.72;;;17.28;100.00
65760;BME280;52496;51.082;5.066;2023-05-22T09:00:34;101513.03;;;17.33;100.00
65760;BME280;52496;51.082;5.066;2023-05-22T09:03:05;101513.44;;;17.37;100.00
65760;BME280;52496;51.082;5.066;2023-05-22T09:05:39;101516.97;;;17.37;100.00
65760;BME280;52496;51.082;5.066;2023-05-22T09:08:10;101510.72;;;17.43;100.00
65760;BME280;52496;51.082;5.066;2023-05-22T09:10:41;101505.50;;;17.49;100.00
65760;BME280;52496;51.082;5.066;2023-05-22T09:13:25;101512.34;;;17.58;100.00
65760;BME280;52496;51.082;5.066;2023-05-22T09:16:08;101502.94;;;17.67;100.00
65760;BME280;52496;51.082;5.066;2023-05-22T09:18:40;101506.66;;;17.79;100.00
65760;BME280;52496;51.082;5.066;2023-05-22T09:21:11;101501.63;;;17.90;100.00
65760;BME280;52496;51.082;5.066;2023-05-22T09:23:48;101508.19;;;18.00;100.00
65760;BME280;52496;51.082;5.066;2023-05-22T09:26:28;101509.22;;;18.06;100.00
65760;BME280;52496;51.082;5.066;2023-05-22T09:28:59;101507.72;;;18.10;100.00
65760;BME280;52496;51.082;5.066;2023-05-22T09:31:30;101508.09;;;18.20;100.00
65760;BME280;52496;51.082;5.066;2023-05-22T09:34:00;101505.91;;;18.29;100.00
65760;BME280;52496;51.082;5.066;2023-05-22T09:36:34;101510.00;;;18.45;100.00
65760;BME280;52496;51.082;5.066;2023-05-22T09:39:05;101517.81;;;18.53;100.00
65760;BME280;52496;51.082;5.066;2023-05-22T09:41:37;101513.13;;;18.67;100.00
65760;BME280;52496;51.082;5.066;2023-05-22T09:44:13;101503.88;;;18.81;100.00
65760;BME280;52496;51.082;5.066;2023-05-22T09:46:45;101511.63;;;18.96;100.00
65760;BME280;52496;51.082;5.066;2023-05-22T09:49:16;101520.25;;;19.11;100.00
65760;BME280;52496;51.082;5.066;2023-05-22T09:51:47;101507.81;;;19.22;100.00
65760;BME280;52496;51.082;5.066;2023-05-22T09:54:19;101506.16;;;19.21;100.00
65760;BME280;52496;51.082;5.066;2023-05-22T09:56:58;101512.50;;;19.33;100.00
65760;BME280;52496;51.082;5.066;2023-05-22T09:59:30;101511.50;;;19.46;100.00
65760;BME280;52496;51.082;5.066;2023-05-22T10:02:02;101505.03;;;19.65;100.00
65760;BME280;52496;51.082;5.066;2023-05-22T10:04:35;101508.16;;;19.81;100.00
65760;BME280;52496;51.082;5.066;2023-05-22T10:07:08;101514.28;;;20.06;100.00
65760;BME280;52496;51.082;5.066;2023-05-22T10:09:40;101516.94;;;20.25;100.00
65760;BME280;52496;51.082;5.066;2023-05-22T10:12:12;101502.81;;;20.46;99.12
65760;BME280;52496;51.082;5.066;2023-05-22T10:14:45;101501.81;;;20.71;100.00
65760;BME280;52496;51.082;5.066;2023-05-22T10:17:17;101509.59;;;20.79;97.02
65760;BME280;52496;51.082;5.066;2023-05-22T10:19:48;101511.13;;;20.75;95.38
65760;BME280;52496;51.082;5.066;2023-05-22T10:22:19;101516.69;;;20.80;95.61
65760;BME280;52496;51.082;5.066;2023-05-22T10:24:53;101509.34;;;20.92;94.56
65760;BME280;52496;51.082;5.066;2023-05-22T10:27:24;101495.63;;;21.11;93.49
65760;BME280;52496;51.082;5.066;2023-05-22T10:29:59;101492.03;;;21.45;93.15
65760;BME280;52496;51.082;5.066;2023-05-22T10:32:39;101501.19;;;21.68;89.40
65760;BME280;52496;51.082;5.066;2023-05-22T10:35:15;101495.88;;;21.73;91.38
65760;BME280;52496;51.082;5.066;2023-05-22T10:41:15;101480.16;;;22.37;87.23
65760;BME280;52496;51.082;5.066;2023-05-22T10:43:50;101477.56;;;22.48;85.43
65760;BME280;52496;51.082;5.066;2023-05-22T10:46:20;101476.88;;;22.74;85.97
65760;BME280;52496;51.082;5.066;2023-05-22T10:48:53;101476.59;;;22.93;84.24
65760;BME280;52496;51.082;5.066;2023-05-22T10:51:24;101464.22;;;23.02;84.91
65760;BME280;52496;51.082;5.066;2023-05-22T10:53:58;101472.16;;;23.25;83.12
65760;BME280;52496;51.082;5.066;2023-05-22T10:56:36;101477.16;;;23.33;83.87
65760;BME280;52496;51.082;5.066;2023-05-22T10:59:06;101481.34;;;23.41;81.97
65760;BME280;52496;51.082;5.066;2023-05-22T11:01:37;101484.84;;;23.36;82.43
65760;BME280;52496;51.082;5.066;2023-05-22T11:06:45;101481.66;;;23.45;81.37
65760;BME280;52496;51.082;5.066;2023-05-22T11:14:50;101485.47;;;23.66;81.09
65760;BME280;52496;51.082;5.066;2023-05-22T11:17:29;101492.13;;;23.75;80.59
65760;BME280;52496;51.082;5.066;2023-05-22T11:20:13;101473.56;;;24.04;81.68
65760;BME280;52496;51.082;5.066;2023-05-22T11:23:01;101482.53;;;24.26;77.36
65760;BME280;52496;51.082;5.066;2023-05-22T11:25:35;101473.22;;;24.27;75.90
65760;BME280;52496;51.082;5.066;2023-05-22T11:28:07;101476.13;;;24.16;78.40
65760;BME280;52496;51.082;5.066;2023-05-22T11:30:39;101477.81;;;24.17;76.87
65760;BME280;52496;51.082;5.066;2023-05-22T11:33:10;101473.69;;;24.19;76.96
65760;BME280;52496;51.082;5.066;2023-05-22T11:35:42;101479.84;;;24.32;76.33
65760;BME280;52496;51.082;5.066;2023-05-22T11:38:13;101482.81;;;24.30;75.41
65760;BME280;52496;51.082;5.066;2023-05-22T11:40:44;101474.91;;;24.29;77.35
65760;BME280;52496;51.082;5.066;2023-05-22T11:43:14;101476.75;;;24.50;76.06
65760;BME280;52496;51.082;5.066;2023-05-22T11:45:45;101474.94;;;24.66;73.99
65760;BME280;52496;51.082;5.066;2023-05-22T11:48:18;101472.88;;;24.88;73.82
65760;BME280;52496;51.082;5.066;2023-05-22T11:50:49;101471.03;;;25.04;73.57
65760;BME280;52496;51.082;5.066;2023-05-22T11:53:19;101472.22;;;25.18;72.99
65760;BME280;52496;51.082;5.066;2023-05-22T11:55:50;101461.09;;;25.35;73.90
65760;BME280;52496;51.082;5.066;2023-05-22T11:58:26;101460.31;;;25.55;70.13
65760;BME280;52496;51.082;5.066;2023-05-22T12:01:01;101464.44;;;25.58;69.99
65760;BME280;52496;51.082;5.066;2023-05-22T12:03:32;101459.22;;;25.61;71.38
65760;BME280;52496;51.082;5.066;2023-05-22T12:06:03;101463.34;;;25.64;69.14
65760;BME280;52496;51.082;5.066;2023-05-22T12:08:34;101466.38;;;25.62;71.11
65760;BME280;52496;51.082;5.066;2023-05-22T12:11:05;101457.03;;;25.63;69.88
65760;BME280;52496;51.082;5.066;2023-05-22T12:13:36;101460.59;;;25.59;67.75
65760;BME280;52496;51.082;5.066;2023-05-22T12:16:18;101457.53;;;25.50;68.85
65760;BME280;52496;51.082;5.066;2023-05-22T12:18:52;101452.66;;;25.62;70.60
65760;BME280;52496;51.082;5.066;2023-05-22T12:21:25;101450.78;;;25.83;69.50
65760;BME280;52496;51.082;5.066;2023-05-22T12:23:56;101451.38;;;25.91;67.74
65760;BME280;52496;51.082;5.066;2023-05-22T12:26:26;101447.25;;;25.98;69.69
65760;BME280;52496;51.082;5.066;2023-05-22T12:28:58;101448.38;;;26.02;67.77
65760;BME280;52496;51.082;5.066;2023-05-22T12:31:33;101456.56;;;25.92;68.93
65760;BME280;52496;51.082;5.066;2023-05-22T12:34:07;101443.16;;;26.01;67.62
65760;BME280;52496;51.082;5.066;2023-05-22T12:36:40;101453.84;;;26.23;67.63
65760;BME280;52496;51.082;5.066;2023-05-22T12:39:15;101448.66;;;26.26;67.62
65760;BME280;52496;51.082;5.066;2023-05-22T12:41:45;101439.03;;;26.24;67.75
65760;BME280;52496;51.082;5.066;2023-05-22T12:44:16;101453.56;;;26.19;67.13
65760;BME280;52496;51.082;5.066;2023-05-22T12:46:46;101450.56;;;26.16;66.22
65760;BME280;52496;51.082;5.066;2023-05-22T12:49:17;101447.81;;;26.05;66.06
65760;BME280;52496;51.082;5.066;2023-05-22T12:51:47;101448.06;;;25.99;68.04
65760;BME280;52496;51.082;5.066;2023-05-22T12:54:18;101450.28;;;26.17;67.67
65760;BME280;52496;51.082;5.066;2023-05-22T12:56:48;101453.28;;;26.26;66.58
65760;BME280;52496;51.082;5.066;2023-05-22T12:59:19;101447.25;;;26.19;65.99
65760;BME280;52496;51.082;5.066;2023-05-22T13:01:49;101437.94;;;26.30;66.44
65760;BME280;52496;51.082;5.066;2023-05-22T13:04:20;101439.59;;;26.21;68.38
65760;BME280;52496;51.082;5.066;2023-05-22T13:06:50;101434.63;;;26.23;68.15
65760;BME280;52496;51.082;5.066;2023-05-22T13:09:21;101437.41;;;26.33;68.82
65760;BME280;52496;51.082;5.066;2023-05-22T13:11:51;101443.41;;;26.45;67.41
65760;BME280;52496;51.082;5.066;2023-05-22T13:14:22;101453.28;;;26.67;66.53
65760;BME280;52496;51.082;5.066;2023-05-22T13:16:52;101453.78;;;26.74;65.34
65760;BME280;52496;51.082;5.066;2023-05-22T13:19:23;101443.13;;;26.72;66.55
65760;BME280;52496;51.082;5.066;2023-05-22T13:21:53;101441.69;;;26.90;65.11
65760;BME280;52496;51.082;5.066;2023-05-22T13:24:23;101451.00;;;26.99;63.95
65760;BME280;52496;51.082;5.066;2023-05-22T13:26:54;101449.38;;;26.93;63.68
65760;BME280;52496;51.082;5.066;2023-05-22T13:29:24;101457.31;;;26.90;63.02